createdAt,value
2022-07-29T00:02:36.849Z,12.78
2022-07-29T00:07:39.691Z,12.69
2022-07-29T00:12:43.870Z,12.58
2022-07-29T00:17:47.049Z,12.47
2022-07-29T00:22:49.828Z,12.46
2022-07-29T00:27:53.986Z,12.38
2022-07-29T00:32:56.864Z,12.36
2022-07-29T00:37:59.909Z,12.38
2022-07-29T00:43:06.385Z,12.39
2022-07-29T00:48:09.879Z,12.45
2022-07-29T00:53:14.650Z,12.46
2022-07-29T00:58:18.882Z,12.43
2022-07-29T01:03:21.675Z,12.38
2022-07-29T01:08:25.798Z,12.33
2022-07-29T01:13:31.824Z,12.26
2022-07-29T01:18:38.056Z,12.22
2022-07-29T01:23:56.538Z,12.20
2022-07-29T01:29:13.333Z,12.14
2022-07-29T01:34:23.016Z,12.06
2022-07-29T01:39:33.568Z,11.98
2022-07-29T01:44:41.688Z,11.89
2022-07-29T01:49:50.975Z,11.83
2022-07-29T01:54:59.708Z,11.81
2022-07-29T02:00:04.891Z,11.74
2022-07-29T02:05:11.445Z,11.74
2022-07-29T02:10:16.138Z,11.74
2022-07-29T02:15:23.801Z,11.68
2022-07-29T02:20:28.320Z,11.58
2022-07-29T02:25:37.474Z,11.51
2022-07-29T02:30:45.273Z,11.45
2022-07-29T02:35:50.640Z,11.40
2022-07-29T02:40:55.297Z,11.41
2022-07-29T02:46:03.068Z,11.41
2022-07-29T02:51:10.284Z,11.43
2022-07-29T02:56:22.344Z,11.40
2022-07-29T03:01:35.134Z,11.39
2022-07-29T03:06:40.709Z,11.32
2022-07-29T03:11:50.393Z,11.20
2022-07-29T03:16:55.469Z,11.14
2022-07-29T03:21:59.173Z,11.11
2022-07-29T03:27:02.474Z,11.08
2022-07-29T03:32:08.949Z,11.06
2022-07-29T03:37:11.945Z,11.04
2022-07-29T03:42:17.681Z,11.04
2022-07-29T03:47:39.324Z,11.08
2022-07-29T03:52:51.245Z,11.10
2022-07-29T03:57:54.343Z,11.15
2022-07-29T04:02:59.027Z,11.21
2022-07-29T04:08:01.913Z,11.30
2022-07-29T04:13:04.763Z,11.40
2022-07-29T04:18:08.931Z,11.45
2022-07-29T04:23:11.932Z,11.55
2022-07-29T04:28:14.730Z,11.66
2022-07-29T04:33:21.249Z,11.73
2022-07-29T04:38:27.653Z,11.81
2022-07-29T04:43:30.430Z,11.85
2022-07-29T04:48:41.064Z,11.95
2022-07-29T04:53:43.933Z,12.02
2022-07-29T04:58:46.728Z,12.15
2022-07-29T05:03:50.961Z,12.32
2022-07-29T05:08:53.753Z,12.51
2022-07-29T05:13:56.498Z,12.77
2022-07-29T05:19:00.647Z,13.06
2022-07-29T05:24:03.459Z,13.34
2022-07-29T05:29:06.349Z,13.57
2022-07-29T05:34:10.522Z,13.78
2022-07-29T05:39:14.606Z,14.04
2022-07-29T05:44:17.718Z,14.33
2022-07-29T05:49:27.015Z,14.60
2022-07-29T05:54:30.306Z,14.90
2022-07-29T05:59:33.432Z,15.20
2022-07-29T06:04:37.658Z,15.49
2022-07-29T06:09:40.488Z,15.79
2022-07-29T06:14:43.370Z,16.15
2022-07-29T06:19:47.519Z,16.57
2022-07-29T06:24:50.340Z,16.99
2022-07-29T06:29:53.120Z,17.48
2022-07-29T06:35:24.410Z,17.88
2022-07-29T06:40:37.481Z,18.24
2022-07-29T06:45:42.351Z,18.55
2022-07-29T06:50:46.801Z,18.82
2022-07-29T06:55:49.640Z,19.05
2022-07-29T07:00:52.494Z,19.29
2022-07-29T07:05:57.363Z,19.47
2022-07-29T07:11:00.439Z,19.61
2022-07-29T07:16:03.523Z,19.80
2022-07-29T07:21:07.850Z,20.10
2022-07-29T07:26:11.809Z,20.15
2022-07-29T07:31:15.228Z,20.21
2022-07-29T07:36:19.419Z,20.22
2022-07-29T07:41:22.359Z,20.35
2022-07-29T07:46:25.220Z,20.51
2022-07-29T07:51:29.443Z,20.75
2022-07-29T07:56:35.281Z,21.09
2022-07-29T08:01:48.051Z,21.41
2022-07-29T08:07:00.896Z,21.57
2022-07-29T08:12:06.634Z,21.70
2022-07-29T08:17:09.447Z,21.77
2022-07-29T08:22:13.578Z,21.70
2022-07-29T08:27:41.809Z,21.81
2022-07-29T08:32:55.632Z,21.92
2022-07-29T08:38:00.307Z,22.10
2022-07-29T08:43:08.871Z,22.24
2022-07-29T08:48:11.688Z,22.18
2022-07-29T08:53:17.307Z,22.07
2022-07-29T08:58:23.239Z,21.90
2022-07-29T09:03:32.452Z,21.88
2022-07-29T09:08:37.329Z,21.86
2022-07-29T09:13:40.162Z,21.91
2022-07-29T09:18:44.222Z,22.09
2022-07-29T09:29:20.815Z,22.80
2022-07-29T09:34:27.266Z,23.28
2022-07-29T09:39:32.280Z,23.60
2022-07-29T09:44:49.023Z,23.85
2022-07-29T09:49:58.887Z,23.77
2022-07-29T09:55:09.028Z,23.89
2022-07-29T10:00:15.924Z,23.98
2022-07-29T10:05:22.717Z,24.18
2022-07-29T10:10:27.307Z,24.27
2022-07-29T10:15:33.672Z,24.31
2022-07-29T10:20:37.490Z,24.36
2022-07-29T10:25:45.671Z,24.54
2022-07-29T10:30:53.793Z,24.70
2022-07-29T10:36:27.017Z,25.03
2022-07-29T10:41:47.583Z,25.19
2022-07-29T10:46:52.620Z,25.40
2022-07-29T10:52:05.767Z,25.30
2022-07-29T10:57:21.610Z,25.43
2022-07-29T11:02:52.971Z,25.31
2022-07-29T11:08:26.455Z,25.47
2022-07-29T11:13:53.273Z,25.54
2022-07-29T11:19:29.770Z,25.55
2022-07-29T11:24:34.995Z,25.51
2022-07-29T11:29:41.539Z,25.52
2022-07-29T11:34:48.790Z,25.68
2022-07-29T11:40:13.111Z,25.74
2022-07-29T11:45:43.113Z,25.73
2022-07-29T11:50:44.494Z,25.74
2022-07-29T11:55:50.772Z,25.70
2022-07-29T12:00:56.311Z,25.67
2022-07-29T12:06:00.661Z,25.71
2022-07-29T12:11:03.566Z,25.78
2022-07-29T12:16:07.145Z,25.84
2022-07-29T12:21:12.454Z,25.81
2022-07-29T12:26:25.473Z,25.79
2022-07-29T12:31:41.985Z,26.06
2022-07-29T12:36:48.737Z,26.20
2022-07-29T12:41:51.534Z,26.34
2022-07-29T12:47:04.241Z,26.57
2022-07-29T12:52:30.762Z,26.85
2022-07-29T12:57:33.904Z,26.98
2022-07-29T13:02:37.536Z,27.08
2022-07-29T13:07:54.964Z,27.25
2022-07-29T13:13:08.896Z,27.14
2022-07-29T13:18:29.731Z,26.89
2022-07-29T13:23:38.405Z,27.11
2022-07-29T13:28:44.103Z,27.09
2022-07-29T13:33:47.220Z,27.14
2022-07-29T13:38:51.402Z,27.61
2022-07-29T13:43:54.257Z,27.92
2022-07-29T13:48:57.109Z,27.99
2022-07-29T13:54:01.590Z,28.13
2022-07-29T13:59:05.472Z,27.92
2022-07-29T14:04:08.390Z,27.74
2022-07-29T14:09:12.637Z,27.59
2022-07-29T14:14:15.467Z,27.71
2022-07-29T14:19:18.346Z,27.56
2022-07-29T14:24:23.785Z,27.79
2022-07-29T14:29:38.273Z,27.90
2022-07-29T14:34:41.422Z,27.80
2022-07-29T14:39:45.598Z,27.52
2022-07-29T14:44:50.321Z,27.44
2022-07-29T14:55:19.572Z,27.28
2022-07-29T15:00:23.391Z,27.04
2022-07-29T15:05:26.314Z,26.82
2022-07-29T15:10:31.203Z,26.77
2022-07-29T15:15:34.359Z,26.76
2022-07-29T15:20:37.537Z,26.69
2022-07-29T15:25:44.599Z,26.51
2022-07-29T15:30:48.273Z,26.42
2022-07-29T15:35:51.316Z,26.40
2022-07-29T15:40:57.274Z,26.42
2022-07-29T15:46:17.932Z,26.28
2022-07-29T15:51:20.871Z,26.24
2022-07-29T15:56:25.248Z,26.02
2022-07-29T16:01:28.555Z,25.92
2022-07-29T16:06:32.132Z,25.72
2022-07-29T16:11:36.766Z,25.62
2022-07-29T16:16:41.842Z,25.44
2022-07-29T16:21:45.356Z,25.29
2022-07-29T16:26:52.075Z,25.22
2022-07-29T16:31:59.468Z,25.06
2022-07-29T16:37:05.947Z,24.94
2022-07-29T16:42:36.913Z,24.78
2022-07-29T16:47:41.181Z,24.88
2022-07-29T16:52:52.605Z,24.98
2022-07-29T16:57:57.416Z,25.03
2022-07-29T17:03:14.873Z,25.07
2022-07-29T17:08:27.258Z,24.97
2022-07-29T17:13:32.291Z,24.78
2022-07-29T17:18:45.249Z,24.60
2022-07-29T17:23:52.027Z,24.40
2022-07-29T17:28:57.109Z,24.20
2022-07-29T17:34:03.387Z,24.03
2022-07-29T17:39:08.567Z,23.87
2022-07-29T17:44:13.652Z,23.69
2022-07-29T17:49:16.870Z,23.58
2022-07-29T17:54:20.422Z,23.41
2022-07-29T17:59:25.174Z,23.25
2022-07-29T18:04:29.298Z,23.09
2022-07-29T18:09:35.489Z,23.00
2022-07-29T18:14:58.473Z,22.91
2022-07-29T18:20:02.260Z,22.83
2022-07-29T18:25:05.899Z,22.67
2022-07-29T18:30:20.381Z,22.50
2022-07-29T18:35:23.653Z,22.41
2022-07-29T18:40:26.775Z,22.36
2022-07-29T18:45:36.668Z,22.24
2022-07-29T18:50:45.688Z,22.12
2022-07-29T18:56:02.405Z,22.03
2022-07-29T19:01:07.172Z,21.96
2022-07-29T19:06:21.613Z,21.84
2022-07-29T19:11:26.996Z,21.70
2022-07-29T19:16:31.260Z,21.60
2022-07-29T19:21:34.315Z,21.48
2022-07-29T19:26:39.343Z,21.35
2022-07-29T19:31:44.387Z,21.17
2022-07-29T19:36:50.256Z,21.02
2022-07-29T19:42:03.379Z,20.86
2022-07-29T19:47:12.158Z,20.72
2022-07-29T19:52:26.837Z,20.60
2022-07-29T19:57:35.937Z,20.48
2022-07-29T20:02:45.851Z,20.38
2022-07-29T20:08:09.991Z,20.23
2022-07-29T20:13:13.136Z,20.13
2022-07-29T20:23:50.627Z,19.93
2022-07-29T20:28:53.988Z,19.79
2022-07-29T20:33:59.064Z,19.70
2022-07-29T20:39:02.316Z,19.53
2022-07-29T20:44:06.327Z,19.37
2022-07-29T20:49:14.359Z,19.26
2022-07-29T20:54:19.970Z,19.14
2022-07-29T20:59:23.149Z,19.05
2022-07-29T21:04:30.924Z,18.96
2022-07-29T21:09:35.596Z,18.83
2022-07-29T21:14:57.920Z,18.75
2022-07-29T21:20:03.192Z,18.69
2022-07-29T21:25:07.022Z,18.57
2022-07-29T21:30:10.898Z,18.48
2022-07-29T21:35:30.326Z,18.39
2022-07-29T21:40:37.977Z,18.34
2022-07-29T21:45:40.832Z,18.36
2022-07-29T21:50:45.174Z,18.35
2022-07-29T21:55:48.416Z,18.29
2022-07-29T22:00:51.249Z,18.20
2022-07-29T22:05:56.136Z,18.16
2022-07-29T22:10:59.012Z,18.12
2022-07-29T22:16:01.800Z,18.02
2022-07-29T22:21:06.221Z,17.92
2022-07-29T22:26:09.187Z,17.76
2022-07-29T22:31:12.272Z,17.63
2022-07-29T22:36:16.556Z,17.54
2022-07-29T22:41:19.402Z,17.52
2022-07-29T22:46:22.293Z,17.49
2022-07-29T22:51:26.913Z,17.42
2022-07-29T22:56:29.827Z,17.32
2022-07-29T23:01:37.258Z,17.28
2022-07-29T23:06:42.299Z,17.21
2022-07-29T23:11:45.129Z,17.16
2022-07-29T23:16:48.132Z,17.07
2022-07-29T23:21:52.381Z,16.99
2022-07-29T23:26:55.239Z,16.96
2022-07-29T23:31:58.033Z,16.90
2022-07-29T23:37:02.601Z,16.81
2022-07-29T23:42:05.808Z,16.76
2022-07-29T23:47:08.644Z,16.75
2022-07-29T23:52:12.876Z,16.74
2022-07-29T23:57:15.773Z,16.70
